createdAt,value
2022-11-08T00:00:02.176Z,0.90
2022-11-08T00:02:47.521Z,2.37
2022-11-08T00:05:51.526Z,1.00
2022-11-08T00:08:55.346Z,1.40
2022-11-08T00:11:59.228Z,0.97
2022-11-08T00:14:46.734Z,0.87
2022-11-08T00:17:32.820Z,1.03
2022-11-08T00:20:18.120Z,1.00
2022-11-08T00:23:03.878Z,1.87
2022-11-08T00:25:53.834Z,0.67
2022-11-08T00:28:38.963Z,1.10
2022-11-08T00:31:23.947Z,0.70
2022-11-08T00:34:08.820Z,0.97
2022-11-08T00:36:53.888Z,1.00
2022-11-08T00:39:39.038Z,0.80
2022-11-08T00:42:24.089Z,1.03
2022-11-08T00:45:09.334Z,0.93
2022-11-08T00:47:54.302Z,0.80
2022-11-08T00:50:39.985Z,0.83
2022-11-08T00:53:25.181Z,0.90
2022-11-08T00:56:12.355Z,1.20
2022-11-08T00:59:01.054Z,0.70
2022-11-08T01:01:47.354Z,1.07
2022-11-08T01:04:32.514Z,0.83
2022-11-08T01:07:17.669Z,0.70
2022-11-08T01:10:02.490Z,1.03
2022-11-08T01:12:47.807Z,0.80
2022-11-08T01:15:40.587Z,0.80
2022-11-08T01:18:26.222Z,1.10
2022-11-08T01:21:12.349Z,0.77
2022-11-08T01:23:57.808Z,0.93
2022-11-08T01:26:42.960Z,2.00
2022-11-08T01:29:27.911Z,1.10
2022-11-08T01:32:12.842Z,0.93
2022-11-08T01:34:57.802Z,1.10
2022-11-08T01:37:42.846Z,1.20
2022-11-08T01:40:28.729Z,1.00
2022-11-08T01:43:29.495Z,1.00
2022-11-08T01:46:31.686Z,1.70
2022-11-08T01:49:29.844Z,1.03
2022-11-08T01:52:22.996Z,1.70
2022-11-08T01:55:14.300Z,0.83
2022-11-08T01:58:18.119Z,0.70
2022-11-08T02:01:04.061Z,1.10
2022-11-08T02:03:50.447Z,0.80
2022-11-08T02:06:38.102Z,0.90
2022-11-08T02:09:23.357Z,1.03
2022-11-08T02:12:09.245Z,0.93
2022-11-08T02:14:54.278Z,1.80
2022-11-08T02:17:39.709Z,1.80
2022-11-08T02:20:24.957Z,0.70
2022-11-08T02:23:28.852Z,0.70
2022-11-08T02:26:16.106Z,0.80
2022-11-08T02:29:28.354Z,0.70
2022-11-08T02:32:13.705Z,0.50
2022-11-08T02:34:59.265Z,0.50
2022-11-08T02:37:44.848Z,0.77
2022-11-08T02:40:30.133Z,0.73
2022-11-08T02:43:15.187Z,0.77
2022-11-08T02:46:00.535Z,0.73
2022-11-08T02:48:45.621Z,0.80
2022-11-08T02:51:31.059Z,0.70
2022-11-08T02:54:16.105Z,0.67
2022-11-08T02:57:01.168Z,0.70
2022-11-08T02:59:46.298Z,0.60
2022-11-08T03:02:31.245Z,0.80
2022-11-08T03:05:20.123Z,0.70
2022-11-08T03:08:05.916Z,0.60
2022-11-08T03:10:50.999Z,0.60
2022-11-08T03:13:36.086Z,1.53
2022-11-08T03:16:21.326Z,0.60
2022-11-08T03:19:06.290Z,0.80
2022-11-08T03:21:51.277Z,1.00
2022-11-08T03:24:36.255Z,0.77
2022-11-08T03:27:21.588Z,0.80
2022-11-08T03:30:07.638Z,1.30
2022-11-08T03:32:52.890Z,0.80
2022-11-08T03:35:38.279Z,0.80
2022-11-08T03:38:23.184Z,1.07
2022-11-08T03:41:08.633Z,0.70
2022-11-08T03:43:54.195Z,0.70
2022-11-08T03:46:39.455Z,0.93
2022-11-08T03:49:24.487Z,0.80
2022-11-08T03:52:09.642Z,0.77
2022-11-08T03:54:54.653Z,0.70
2022-11-08T03:57:40.893Z,0.80
2022-11-08T04:00:28.535Z,0.83
2022-11-08T04:03:13.394Z,0.90
2022-11-08T04:06:02.288Z,0.70
2022-11-08T04:08:47.808Z,0.77
2022-11-08T04:11:51.367Z,0.90
2022-11-08T04:14:55.229Z,0.70
2022-11-08T04:18:00.207Z,0.90
2022-11-08T04:21:26.086Z,0.90
2022-11-08T04:24:11.135Z,1.07
2022-11-08T04:26:56.278Z,1.00
2022-11-08T04:29:41.243Z,0.70
2022-11-08T04:32:26.262Z,0.70
2022-11-08T04:35:11.291Z,0.90
2022-11-08T04:38:02.650Z,0.83
2022-11-08T04:40:48.218Z,0.80
2022-11-08T04:43:33.858Z,0.60
2022-11-08T04:46:21.459Z,0.90
2022-11-08T04:49:08.132Z,0.90
2022-11-08T04:51:53.263Z,0.60
2022-11-08T04:54:38.281Z,0.60
2022-11-08T04:57:23.154Z,0.80
2022-11-08T05:00:08.943Z,0.83
2022-11-08T05:02:54.425Z,1.10
2022-11-08T05:05:39.579Z,0.80
2022-11-08T05:08:24.512Z,0.90
2022-11-08T05:11:14.298Z,0.90
2022-11-08T05:13:59.303Z,0.90
2022-11-08T05:16:44.706Z,0.80
2022-11-08T05:19:55.818Z,0.70
2022-11-08T05:22:59.222Z,0.83
2022-11-08T05:25:46.267Z,0.77
2022-11-08T05:28:31.167Z,0.80
2022-11-08T05:31:16.900Z,0.77
2022-11-08T05:34:02.010Z,0.70
2022-11-08T05:36:47.311Z,0.70
2022-11-08T05:39:32.517Z,0.80
2022-11-08T05:42:17.416Z,1.00
2022-11-08T05:45:08.146Z,0.80
2022-11-08T05:47:55.875Z,0.70
2022-11-08T05:50:40.792Z,0.87
2022-11-08T05:53:29.790Z,0.70
2022-11-08T05:56:14.906Z,0.83
2022-11-08T05:58:59.936Z,0.90
2022-11-08T06:01:45.270Z,0.60
2022-11-08T06:04:30.875Z,1.00
2022-11-08T06:07:16.154Z,0.80
2022-11-08T06:10:01.091Z,0.70
2022-11-08T06:12:46.140Z,0.87
2022-11-08T06:15:31.155Z,0.87
2022-11-08T06:18:16.382Z,1.27
2022-11-08T06:21:02.695Z,0.97
2022-11-08T06:23:47.744Z,1.00
2022-11-08T06:26:32.923Z,0.80
2022-11-08T06:29:17.871Z,0.70
2022-11-08T06:32:02.936Z,0.80
2022-11-08T06:34:48.988Z,0.70
2022-11-08T06:37:33.997Z,0.70
2022-11-08T06:40:18.998Z,1.80
2022-11-08T06:43:03.890Z,0.80
2022-11-08T06:45:49.095Z,1.20
2022-11-08T06:48:36.076Z,2.40
2022-11-08T06:51:21.756Z,2.77
2022-11-08T06:54:08.717Z,6.07
2022-11-08T06:57:00.292Z,3.40
2022-11-08T06:59:45.527Z,3.60
2022-11-08T07:02:30.659Z,4.27
2022-11-08T07:05:15.690Z,4.73
2022-11-08T07:08:01.957Z,2.90
2022-11-08T07:10:47.175Z,3.03
2022-11-08T07:13:32.188Z,5.40
2022-11-08T07:16:17.520Z,2.57
2022-11-08T07:19:02.708Z,4.03
2022-11-08T07:21:47.668Z,3.10
2022-11-08T07:24:32.582Z,2.63
2022-11-08T07:27:17.677Z,3.10
2022-11-08T07:30:03.304Z,2.80
2022-11-08T07:32:48.288Z,2.53
2022-11-08T07:35:33.546Z,3.03
2022-11-08T07:38:18.565Z,2.63
2022-11-08T07:41:03.834Z,2.10
2022-11-08T07:43:49.177Z,2.77
2022-11-08T07:46:35.336Z,2.47
2022-11-08T07:49:20.622Z,2.13
2022-11-08T07:52:05.935Z,1.93
2022-11-08T07:54:51.171Z,2.27
2022-11-08T07:57:35.916Z,2.27
2022-11-08T08:00:21.050Z,1.87
2022-11-08T08:03:08.733Z,2.30
2022-11-08T08:05:59.511Z,2.00
2022-11-08T08:08:45.612Z,1.93
2022-11-08T08:11:33.693Z,1.80
2022-11-08T08:14:19.379Z,1.60
2022-11-08T08:17:04.487Z,2.10
2022-11-08T08:19:49.404Z,2.43
2022-11-08T08:22:34.338Z,4.17
2022-11-08T08:25:19.938Z,1.83
2022-11-08T08:28:05.974Z,1.73
2022-11-08T08:30:50.897Z,1.80
2022-11-08T08:33:37.395Z,1.80
2022-11-08T08:36:22.678Z,1.70
2022-11-08T08:39:08.023Z,1.67
2022-11-08T08:41:52.790Z,1.80
2022-11-08T08:44:37.771Z,1.83
2022-11-08T08:47:22.891Z,1.70
2022-11-08T08:50:09.314Z,1.50
2022-11-08T08:53:05.767Z,1.87
2022-11-08T08:55:53.687Z,1.80
2022-11-08T08:58:38.793Z,2.30
2022-11-08T09:01:39.547Z,2.30
2022-11-08T09:04:24.499Z,2.40
2022-11-08T09:07:09.562Z,1.93
2022-11-08T09:09:54.716Z,2.10
2022-11-08T09:12:39.597Z,1.70
2022-11-08T09:15:24.757Z,1.77
2022-11-08T09:18:10.621Z,1.70
2022-11-08T09:20:57.845Z,2.07
2022-11-08T09:23:42.977Z,1.57
2022-11-08T09:26:28.309Z,1.63
2022-11-08T09:29:13.827Z,1.60
2022-11-08T09:32:00.612Z,2.03
2022-11-08T09:34:45.617Z,3.80
2022-11-08T09:37:30.724Z,1.90
2022-11-08T09:40:22.178Z,1.60
2022-11-08T09:43:22.812Z,2.07
2022-11-08T09:46:13.092Z,2.03
2022-11-08T09:49:01.492Z,1.80
2022-11-08T09:51:47.794Z,2.27
2022-11-08T09:54:42.867Z,1.67
2022-11-08T09:57:43.667Z,1.90
2022-11-08T10:00:29.119Z,1.83
2022-11-08T10:03:16.700Z,1.87
2022-11-08T10:06:20.603Z,1.30
2022-11-08T10:09:08.368Z,1.70
2022-11-08T10:12:14.423Z,3.47
2022-11-08T10:15:18.526Z,1.30
2022-11-08T10:18:22.319Z,1.40
2022-11-08T10:21:16.229Z,1.67
2022-11-08T10:24:15.613Z,2.67
2022-11-08T10:27:02.716Z,1.60
2022-11-08T10:29:55.943Z,2.90
2022-11-08T10:32:41.504Z,1.50
2022-11-08T10:35:47.535Z,1.73
2022-11-08T10:38:42.780Z,2.40
2022-11-08T10:41:39.907Z,3.67
2022-11-08T10:44:26.628Z,1.70
2022-11-08T10:47:17.943Z,3.57
2022-11-08T10:50:14.111Z,2.03
2022-11-08T10:53:04.031Z,1.20
2022-11-08T10:55:59.054Z,1.50
2022-11-08T10:58:44.744Z,2.67
2022-11-08T11:01:30.249Z,1.23
2022-11-08T11:04:27.659Z,1.30
2022-11-08T11:07:36.824Z,1.50
2022-11-08T11:10:32.725Z,2.03
2022-11-08T11:16:14.494Z,4.13
2022-11-08T11:19:02.080Z,1.20
2022-11-08T11:22:16.375Z,2.13
2022-11-08T11:25:17.210Z,1.57
2022-11-08T11:28:03.473Z,1.50
2022-11-08T11:31:00.163Z,1.70
2022-11-08T11:33:46.440Z,2.97
2022-11-08T11:36:31.791Z,4.77
2022-11-08T11:39:40.903Z,1.63
2022-11-08T11:42:52.588Z,2.10
2022-11-08T11:46:02.063Z,3.20
2022-11-08T11:48:53.444Z,3.20
2022-11-08T11:51:38.217Z,1.20
2022-11-08T11:54:31.040Z,1.17
2022-11-08T11:57:42.321Z,1.37
2022-11-08T12:00:27.366Z,2.60
2022-11-08T12:03:38.284Z,2.33
2022-11-08T12:06:43.519Z,1.23
2022-11-08T12:09:37.453Z,2.27
2022-11-08T12:12:33.638Z,1.67
2022-11-08T12:15:34.489Z,3.63
2022-11-08T12:18:51.777Z,1.40
2022-11-08T12:21:45.853Z,2.80
2022-11-08T12:24:52.189Z,1.67
2022-11-08T12:27:48.437Z,2.77
2022-11-08T12:30:48.186Z,3.80
2022-11-08T12:33:47.741Z,1.20
2022-11-08T12:36:47.975Z,1.40
2022-11-08T12:39:40.744Z,2.10
2022-11-08T12:42:34.650Z,1.47
2022-11-08T12:45:25.673Z,2.43
2022-11-08T12:48:32.167Z,1.90
2022-11-08T12:51:29.400Z,1.40
2022-11-08T12:54:38.533Z,1.83
2022-11-08T12:57:28.114Z,1.47
2022-11-08T13:00:19.057Z,2.33
2022-11-08T13:03:22.756Z,1.50
2022-11-08T13:06:26.213Z,1.93
2022-11-08T13:09:14.780Z,2.50
2022-11-08T13:12:24.692Z,3.20
2022-11-08T13:15:16.780Z,1.27
2022-11-08T13:18:07.767Z,1.57
2022-11-08T13:20:52.793Z,1.77
2022-11-08T13:23:38.072Z,1.83
2022-11-08T13:26:26.081Z,6.67
2022-11-08T13:29:25.020Z,1.90
2022-11-08T13:32:22.693Z,1.60
2022-11-08T13:35:24.479Z,2.50
2022-11-08T13:38:27.054Z,2.07
2022-11-08T13:41:22.494Z,2.07
2022-11-08T13:44:53.241Z,2.00
2022-11-08T13:47:39.907Z,3.00
2022-11-08T13:50:33.933Z,2.60
2022-11-08T13:53:19.270Z,1.67
2022-11-08T13:56:04.590Z,3.30
2022-11-08T13:58:50.600Z,1.70
2022-11-08T14:02:04.432Z,2.10
2022-11-08T14:04:50.419Z,2.03
2022-11-08T14:07:51.750Z,2.00
2022-11-08T14:10:52.780Z,1.83
2022-11-08T14:13:57.778Z,1.87
2022-11-08T14:16:47.324Z,2.67
2022-11-08T14:19:37.614Z,1.90
2022-11-08T14:22:29.743Z,2.17
2022-11-08T14:25:22.900Z,2.30
2022-11-08T14:28:26.046Z,2.57
2022-11-08T14:31:30.401Z,2.60
2022-11-08T14:34:30.619Z,1.77
2022-11-08T14:37:25.016Z,2.73
2022-11-08T14:40:18.858Z,2.33
2022-11-08T14:43:04.238Z,2.23
2022-11-08T14:45:50.500Z,2.07
2022-11-08T14:48:36.968Z,1.93
2022-11-08T14:51:22.194Z,1.97
2022-11-08T14:54:24.926Z,1.73
2022-11-08T14:57:30.629Z,1.83
2022-11-08T15:00:29.290Z,1.97
2022-11-08T15:03:18.287Z,4.23
2022-11-08T15:06:12.578Z,2.43
2022-11-08T15:08:59.294Z,2.67
2022-11-08T15:11:52.926Z,1.93
2022-11-08T15:14:48.908Z,1.80
2022-11-08T15:17:37.055Z,1.57
2022-11-08T15:20:22.451Z,1.97
2022-11-08T15:23:32.436Z,1.70
2022-11-08T15:26:27.109Z,1.73
2022-11-08T15:29:25.399Z,1.90
2022-11-08T15:32:17.631Z,1.90
2022-11-08T15:35:04.356Z,1.73
2022-11-08T15:37:50.771Z,5.13
2022-11-08T15:40:36.017Z,1.77
2022-11-08T15:43:33.384Z,2.13
2022-11-08T15:46:38.495Z,2.73
2022-11-08T15:49:26.051Z,2.20
2022-11-08T15:52:11.132Z,2.20
2022-11-08T15:54:56.036Z,2.97
2022-11-08T15:57:42.785Z,3.23
2022-11-08T16:00:34.463Z,3.33
2022-11-08T16:03:19.639Z,2.17
2022-11-08T16:06:04.640Z,2.07
2022-11-08T16:08:50.272Z,2.17
2022-11-08T16:11:38.404Z,1.80
2022-11-08T16:14:24.868Z,1.87
2022-11-08T16:17:13.369Z,2.17
2022-11-08T16:19:58.495Z,3.00
2022-11-08T16:22:43.931Z,2.80
2022-11-08T16:25:30.888Z,1.80
2022-11-08T16:28:28.198Z,2.03
2022-11-08T16:31:15.798Z,2.00
2022-11-08T16:34:01.117Z,1.77
2022-11-08T16:36:47.800Z,2.00
2022-11-08T16:39:33.127Z,1.73
2022-11-08T16:42:18.227Z,2.23
2022-11-08T16:45:03.489Z,6.07
2022-11-08T16:47:51.073Z,5.47
2022-11-08T16:50:35.829Z,14.23
2022-11-08T16:53:21.638Z,15.77
2022-11-08T16:56:06.772Z,22.57
2022-11-08T16:58:52.152Z,24.00
2022-11-08T17:01:38.252Z,24.50
2022-11-08T17:04:23.646Z,25.73
2022-11-08T17:07:14.210Z,31.17
2022-11-08T17:09:59.946Z,27.20
2022-11-08T17:12:45.718Z,29.97
2022-11-08T17:15:31.657Z,28.57
2022-11-08T17:18:21.085Z,31.20
2022-11-08T17:21:42.597Z,32.83
2022-11-08T17:24:21.791Z,32.90
2022-11-08T17:27:07.601Z,31.07
2022-11-08T17:29:52.588Z,26.40
2022-11-08T17:32:37.913Z,24.53
2022-11-08T17:35:23.506Z,28.17
2022-11-08T17:38:08.674Z,29.47
2022-11-08T17:41:01.901Z,24.87
2022-11-08T17:43:47.224Z,26.80
2022-11-08T17:46:32.784Z,27.83
2022-11-08T17:49:19.085Z,25.30
2022-11-08T17:52:04.501Z,52.17
2022-11-08T17:54:52.908Z,61.83
2022-11-08T17:57:38.865Z,71.87
2022-11-08T18:00:23.771Z,95.77
2022-11-08T18:03:12.880Z,111.40
2022-11-08T18:06:00.485Z,114.87
2022-11-08T18:08:45.748Z,117.27
2022-11-08T18:11:31.079Z,106.97
2022-11-08T18:14:18.404Z,97.37
2022-11-08T18:17:05.008Z,87.23
2022-11-08T18:19:50.241Z,87.27
2022-11-08T18:22:35.810Z,114.37
2022-11-08T18:25:21.205Z,222.50
2022-11-08T18:28:06.525Z,205.47
2022-11-08T18:30:52.040Z,245.17
2022-11-08T18:33:38.343Z,397.37
2022-11-08T18:36:27.109Z,482.10
2022-11-08T18:39:18.119Z,480.97
2022-11-08T18:42:04.617Z,479.77
2022-11-08T18:44:49.664Z,576.27
2022-11-08T18:47:34.726Z,632.83
2022-11-08T18:50:20.180Z,627.83
2022-11-08T18:53:07.038Z,600.00
2022-11-08T18:55:52.485Z,562.47
2022-11-08T18:58:38.006Z,526.83
2022-11-08T19:01:22.992Z,512.23
2022-11-08T19:04:08.520Z,508.07
2022-11-08T19:06:54.895Z,504.10
2022-11-08T19:09:40.255Z,496.47
2022-11-08T19:12:27.854Z,489.77
2022-11-08T19:15:12.943Z,484.33
2022-11-08T19:17:58.048Z,474.40
2022-11-08T19:20:43.163Z,469.17
2022-11-08T19:23:28.544Z,468.80
2022-11-08T19:26:25.400Z,460.37
2022-11-08T19:29:11.212Z,448.67
2022-11-08T19:31:56.109Z,458.53
2022-11-08T19:34:41.414Z,445.00
2022-11-08T19:37:26.841Z,431.77
2022-11-08T19:40:12.163Z,431.70
2022-11-08T19:42:57.340Z,420.17
2022-11-08T19:45:49.169Z,417.43
2022-11-08T19:48:38.921Z,391.97
2022-11-08T19:51:26.465Z,329.53
2022-11-08T19:54:12.913Z,296.77
2022-11-08T19:57:06.271Z,218.03
2022-11-08T19:59:51.982Z,186.67
2022-11-08T20:02:37.741Z,156.37
2022-11-08T20:05:22.625Z,109.40
2022-11-08T20:08:09.614Z,99.03
2022-11-08T20:10:55.135Z,84.87
2022-11-08T20:13:40.803Z,85.33
2022-11-08T20:16:29.244Z,72.97
2022-11-08T20:19:16.487Z,56.70
2022-11-08T20:22:01.605Z,46.93
2022-11-08T20:24:46.971Z,41.53
2022-11-08T20:27:32.034Z,35.63
2022-11-08T20:30:17.464Z,35.57
2022-11-08T20:33:03.034Z,28.33
2022-11-08T20:35:48.235Z,29.20
2022-11-08T20:38:33.985Z,45.33
2022-11-08T20:41:19.595Z,134.27
2022-11-08T20:44:06.102Z,147.10
2022-11-08T20:46:51.489Z,164.53
2022-11-08T20:49:36.415Z,130.47
2022-11-08T20:52:26.571Z,112.00
2022-11-08T20:55:11.817Z,163.13
2022-11-08T20:57:57.578Z,158.23
2022-11-08T21:00:57.839Z,140.00
2022-11-08T21:03:45.612Z,116.07
2022-11-08T21:06:36.084Z,92.57
2022-11-08T21:09:37.041Z,81.73
2022-11-08T21:12:23.108Z,71.47
2022-11-08T21:15:08.681Z,64.93
2022-11-08T21:17:53.828Z,51.40
2022-11-08T21:20:39.227Z,41.77
2022-11-08T21:23:24.140Z,36.87
2022-11-08T21:26:10.495Z,31.80
2022-11-08T21:28:55.943Z,28.20
2022-11-08T21:31:41.054Z,24.33
2022-11-08T21:34:32.049Z,83.67
2022-11-08T21:37:17.121Z,204.53
2022-11-08T21:40:02.154Z,232.07
2022-11-08T21:42:48.795Z,226.63
2022-11-08T21:45:34.459Z,177.73
2022-11-08T21:48:19.743Z,135.03
2022-11-08T21:51:05.555Z,163.03
2022-11-08T21:53:54.940Z,169.47
2022-11-08T21:56:40.988Z,136.63
2022-11-08T21:59:25.964Z,108.00
2022-11-08T22:02:11.626Z,77.33
2022-11-08T22:04:56.464Z,72.37
2022-11-08T22:07:41.486Z,106.73
2022-11-08T22:10:26.300Z,121.80
2022-11-08T22:13:11.692Z,102.67
2022-11-08T22:15:56.653Z,68.47
2022-11-08T22:21:47.904Z,55.57
2022-11-08T22:24:33.262Z,54.20
2022-11-08T22:27:18.344Z,51.00
2022-11-08T22:30:04.198Z,52.40
2022-11-08T22:32:49.401Z,53.37
2022-11-08T22:35:34.371Z,54.00
2022-11-08T22:38:19.709Z,48.43
2022-11-08T22:41:05.541Z,47.50
2022-11-08T22:43:50.920Z,48.50
2022-11-08T22:46:36.090Z,51.63
2022-11-08T22:49:21.371Z,49.83
2022-11-08T22:52:06.701Z,51.47
2022-11-08T22:54:51.696Z,48.13
2022-11-08T22:57:36.872Z,49.43
2022-11-08T23:00:21.789Z,49.40
2022-11-08T23:03:07.464Z,45.83
2022-11-08T23:05:54.984Z,45.83
2022-11-08T23:08:40.794Z,47.83
2022-11-08T23:11:58.275Z,47.80
2022-11-08T23:15:01.508Z,43.20
2022-11-08T23:17:46.678Z,42.70
2022-11-08T23:20:50.761Z,44.23
2022-11-08T23:23:54.383Z,49.37
2022-11-08T23:26:58.462Z,42.03
2022-11-08T23:30:02.291Z,41.33
2022-11-08T23:32:49.884Z,42.00
2022-11-08T23:35:35.239Z,41.73
2022-11-08T23:38:22.687Z,42.67
2022-11-08T23:41:27.582Z,39.17
2022-11-08T23:44:24.908Z,42.13
2022-11-08T23:47:10.445Z,41.80
2022-11-08T23:49:55.716Z,38.57
2022-11-08T23:52:40.763Z,36.47
2022-11-08T23:55:25.766Z,41.07
2022-11-08T23:58:12.588Z,37.33
